Time;durP1;ratioP1;P1;durP2;ratioP2;P2;SDS_P1;SDS_P2;PMS_P1;PMS_P2;Temp;Humidity;BMP_temperature;BMP_pressure;BME280_temperature;BME280_humidity;BME280_pressure;Samples;Min_cycle;Max_cycle;Signal;HPM_P1;HPM_P2
2022/12/31 00:00:24;;;;;;;22.67;9.83;;;5.70;99.90;;;3.35;100.00;100775.03;10524983;28;20481;-86
2022/12/31 00:05:33;;;;;;;25.57;10.47;;;5.70;99.90;;;3.34;100.00;100775.16;10569986;28;20139;-86
2022/12/31 00:10:40;;;;;;;20.20;9.80;;;5.70;99.90;;;3.33;100.00;100771.69;10544078;28;20060;-86
2022/12/31 00:15:43;;;;;;;25.87;10.93;;;5.70;99.90;;;3.32;100.00;100783.16;10544542;28;20060;-86
2022/12/31 00:20:46;;;;;;;21.50;9.53;;;5.70;99.90;;;3.31;100.00;100775.38;10542643;28;20554;-85
2022/12/31 00:25:49;;;;;;;23.00;9.23;;;5.70;99.90;;;3.32;100.00;100787.56;10531949;28;20060;-86
2022/12/31 00:30:52;;;;;;;23.50;9.57;;;5.70;99.90;;;3.32;100.00;100793.66;10537560;28;20408;-85
2022/12/31 00:36:12;;;;;;;20.70;8.83;;;5.70;99.90;;;3.31;100.00;100799.03;10561987;28;20059;-85
2022/12/31 00:41:17;;;;;;;22.67;9.50;;;5.70;99.90;;;3.29;100.00;100809.63;10537392;28;20059;-85
2022/12/31 00:46:21;;;;;;;20.77;8.53;;;5.60;99.90;;;3.31;100.00;100828.75;10537268;28;20095;-86
2022/12/31 00:51:27;;;;;;;24.47;9.03;;;5.60;99.90;;;3.32;100.00;100814.66;10564226;28;20060;-87
2022/12/31 00:56:31;;;;;;;23.80;8.97;;;5.70;99.90;;;3.34;100.00;100820.66;10560547;28;20468;-86
2022/12/31 01:01:38;;;;;;;25.43;10.17;;;5.70;99.90;;;3.34;100.00;100819.81;10549983;28;20087;-85
2022/12/31 01:06:42;;;;;;;23.87;9.33;;;5.70;99.90;;;3.35;100.00;100824.94;10519822;28;20443;-86
2022/12/31 01:11:45;;;;;;;26.27;9.07;;;5.70;99.90;;;3.34;100.00;100825.91;10535244;28;20060;-86
2022/12/31 01:16:52;;;;;;;21.07;9.23;;;5.70;99.90;;;3.33;100.00;100821.59;10569975;28;20065;-85
2022/12/31 01:21:56;;;;;;;21.47;9.37;;;5.70;99.90;;;3.33;100.00;100824.22;10551349;28;20584;-85
2022/12/31 01:26:59;;;;;;;29.47;10.47;;;5.70;99.90;;;3.30;100.00;100827.09;10548802;28;20059;-85
2022/12/31 01:32:02;;;;;;;30.93;10.03;;;5.70;99.90;;;3.30;100.00;100823.59;10569572;28;20083;-85
2022/12/31 01:37:05;;;;;;;21.23;9.67;;;5.70;99.90;;;3.32;100.00;100835.69;10532552;28;20082;-86
2022/12/31 01:42:11;;;;;;;28.20;9.83;;;5.70;99.90;;;3.34;100.00;100833.78;10542389;28;20079;-85
2022/12/31 01:47:20;;;;;;;24.57;9.40;;;5.70;99.90;;;3.34;100.00;100839.03;10532242;28;20064;-85
2022/12/31 01:52:38;;;;;;;30.33;8.90;;;5.70;99.90;;;3.35;100.00;100840.72;10545272;28;20060;-86
2022/12/31 01:57:45;;;;;;;23.53;9.23;;;5.70;99.90;;;3.37;100.00;100833.59;10544065;28;20060;-86
2022/12/31 02:02:48;;;;;;;21.67;8.10;;;5.70;99.90;;;3.36;100.00;100837.16;10533879;28;20110;-86
2022/12/31 02:07:52;;;;;;;21.50;8.53;;;5.70;99.90;;;3.36;100.00;100829.28;10582405;28;20503;-86
2022/12/31 02:12:56;;;;;;;30.33;8.77;;;5.70;99.90;;;3.37;100.00;100833.59;10551311;28;20091;-88
2022/12/31 02:18:34;;;;;;;32.60;9.80;;;5.70;99.90;;;3.38;100.00;100837.91;10546132;28;20697;-87
2022/12/31 02:24:06;;;;;;;25.63;9.10;;;5.70;99.90;;;3.39;100.00;100830.84;10557982;28;20135;-88
2022/12/31 02:29:53;;;;;;;26.55;10.20;;;5.70;99.90;;;3.35;100.00;100843.34;10546627;28;20084;-87
2022/12/31 02:35:23;;;;;;;27.10;9.37;;;5.70;99.90;;;3.34;100.00;100846.09;10560264;28;20056;-87
2022/12/31 02:40:26;;;;;;;31.23;10.27;;;5.70;99.90;;;3.31;100.00;100848.94;10551340;28;20569;-88
2022/12/31 02:45:43;;;;;;;23.33;8.87;;;5.60;99.90;;;3.31;100.00;100852.41;10566964;28;20510;-87
2022/12/31 02:50:55;;;;;;;27.00;8.80;;;5.60;99.90;;;3.32;100.00;100832.22;10577672;28;20064;-86
2022/12/31 02:56:08;;;;;;;29.00;9.57;;;5.60;99.90;;;3.32;100.00;100813.84;10560877;28;20064;-85
2022/12/31 03:06:46;;;;;;;39.10;9.30;;;5.60;99.90;;;3.30;100.00;100819.19;10551684;28;20055;-85
2022/12/31 03:17:14;;;;;;;36.05;8.98;;;5.60;99.90;;;3.29;100.00;100820.13;10538760;28;20717;-85
2022/12/31 03:22:26;;;;;;;32.00;8.43;;;5.60;99.90;;;3.29;100.00;100822.75;10543429;28;20061;-87
2022/12/31 03:27:32;;;;;;;69.30;8.73;;;5.60;99.90;;;3.28;100.00;100826.31;10537456;28;20057;-87
2022/12/31 03:32:36;;;;;;;56.67;8.53;;;5.60;99.90;;;3.27;100.00;100808.91;10535020;28;20056;-86
2022/12/31 03:37:40;;;;;;;41.00;8.30;;;5.60;99.90;;;3.27;100.00;100810.69;10535259;28;20067;-86
2022/12/31 03:42:43;;;;;;;64.90;7.97;;;5.60;99.90;;;3.27;100.00;100808.91;10519119;28;20066;-86
2022/12/31 03:47:46;;;;;;;61.77;8.47;;;5.60;99.90;;;3.28;100.00;100815.81;10540050;28;20060;-86
2022/12/31 03:52:49;;;;;;;54.63;8.77;;;5.60;99.90;;;3.22;100.00;100817.09;10551617;28;20118;-86
2022/12/31 03:57:52;;;;;;;54.77;8.20;;;5.50;99.90;;;3.22;100.00;100824.13;10536779;28;20143;-85
2022/12/31 04:02:55;;;;;;;40.77;8.40;;;5.50;99.90;;;3.23;100.00;100810.03;10556911;28;20110;-87
2022/12/31 04:07:58;;;;;;;29.73;8.10;;;5.50;99.90;;;3.26;100.00;100816.88;10550266;28;20119;-86
2022/12/31 04:13:03;;;;;;;37.13;8.80;;;5.50;99.90;;;3.26;100.00;100814.25;10547134;28;20504;-85
2022/12/31 04:18:06;;;;;;;39.73;9.37;;;5.60;99.90;;;3.24;100.00;100824.88;10551060;28;20088;-86
2022/12/31 04:23:09;;;;;;;50.33;11.03;;;5.60;99.90;;;3.22;100.00;100818.88;10579526;28;20063;-86
2022/12/31 04:28:12;;;;;;;58.00;11.70;;;5.60;99.90;;;3.21;100.00;100836.41;10540609;28;20057;-86
2022/12/31 04:33:15;;;;;;;33.67;10.80;;;5.50;99.90;;;3.21;100.00;100851.34;10533882;28;20063;-86
2022/12/31 04:38:19;;;;;;;40.00;12.97;;;5.50;99.90;;;3.22;100.00;100847.75;10554648;28;20060;-86
2022/12/31 04:43:22;;;;;;;57.93;13.73;;;5.50;99.90;;;3.20;100.00;100845.25;10531594;28;20060;-86
2022/12/31 04:48:25;;;;;;;55.50;17.83;;;5.50;99.90;;;3.21;100.00;100862.69;10544734;28;20069;-86
2022/12/31 04:53:28;;;;;;;79.37;25.07;;;5.50;99.90;;;3.20;100.00;100871.50;10547654;28;20107;-87
2022/12/31 04:58:32;;;;;;;49.70;16.87;;;5.50;99.90;;;3.19;100.00;100877.72;10539367;28;20089;-87
2022/12/31 05:03:36;;;;;;;55.33;15.30;;;5.50;99.90;;;3.21;100.00;100888.94;10557274;28;20056;-86
2022/12/31 05:08:40;;;;;;;39.07;11.80;;;5.50;99.90;;;3.20;100.00;100891.69;10558808;28;20060;-85
2022/12/31 05:13:43;;;;;;;44.83;12.67;;;5.50;99.90;;;3.21;100.00;100883.69;10552800;28;20060;-85
2022/12/31 05:18:46;;;;;;;43.97;13.80;;;5.50;99.90;;;3.21;100.00;100891.56;10535538;28;20064;-86
2022/12/31 05:23:49;;;;;;;39.87;12.13;;;5.50;99.90;;;3.21;100.00;100888.13;10522614;28;20061;-84
2022/12/31 05:28:52;;;;;;;43.73;12.57;;;5.50;99.90;;;3.21;100.00;100898.63;10545680;28;20060;-85
2022/12/31 05:33:55;;;;;;;47.50;11.70;;;5.50;99.90;;;3.23;100.00;100915.09;10541231;28;20056;-85
2022/12/31 05:38:58;;;;;;;41.53;13.73;;;5.50;99.90;;;3.22;100.00;100914.28;10568941;28;20084;-85
2022/12/31 05:44:01;;;;;;;33.63;9.63;;;5.50;99.90;;;3.22;100.00;100908.19;10528231;28;20139;-87
2022/12/31 05:49:04;;;;;;;39.50;10.30;;;5.50;99.90;;;3.23;100.00;100912.47;10516951;28;20136;-87
2022/12/31 05:54:07;;;;;;;45.17;12.43;;;5.50;99.90;;;3.21;100.00;100909.97;10532931;28;20060;-87
2022/12/31 05:59:10;;;;;;;27.73;9.90;;;5.50;99.90;;;3.22;100.00;100921.31;10564336;28;20060;-88
2022/12/31 06:04:13;;;;;;;33.13;8.97;;;5.50;99.90;;;3.20;100.00;100923.22;10545335;28;20071;-87
2022/12/31 06:09:18;;;;;;;28.20;10.37;;;5.50;99.90;;;3.21;100.00;100919.63;10519274;28;20056;-88
2022/12/31 06:14:21;;;;;;;29.53;10.23;;;5.50;99.90;;;3.22;100.00;100926.56;10524166;28;20538;-87
2022/12/31 06:19:24;;;;;;;41.53;11.57;;;5.50;99.90;;;3.25;100.00;100918.50;10547950;28;20067;-87
2022/12/31 06:24:27;;;;;;;35.50;10.17;;;5.60;99.90;;;3.26;100.00;100919.34;10513868;28;20056;-87
2022/12/31 06:29:30;;;;;;;57.23;14.77;;;5.60;99.90;;;3.26;100.00;100927.22;10526840;28;20052;-87
2022/12/31 06:34:33;;;;;;;52.43;11.43;;;5.60;99.90;;;3.21;100.00;100920.47;10557063;28;20060;-87
2022/12/31 06:39:36;;;;;;;36.70;9.80;;;5.60;99.90;;;3.20;100.00;100918.78;10529503;28;20063;-87
2022/12/31 06:44:39;;;;;;;40.27;8.57;;;5.50;99.90;;;3.24;100.00;100935.19;10543961;28;20365;-87
2022/12/31 06:49:42;;;;;;;50.37;10.07;;;5.60;99.90;;;3.27;100.00;100939.38;10580165;28;20141;-87
2022/12/31 06:54:45;;;;;;;53.70;11.30;;;5.60;99.90;;;3.30;100.00;100949.69;10534724;28;20168;-88
2022/12/31 06:59:49;;;;;;;77.13;14.57;;;5.60;99.90;;;3.32;100.00;100948.66;10532903;28;20139;-85
2022/12/31 07:05:08;;;;;;;51.77;14.13;;;5.60;99.90;;;3.34;100.00;100943.28;10550409;27;20180;-83
2022/12/31 07:10:26;;;;;;;35.97;9.87;;;5.60;99.90;;;3.37;100.00;100957.06;10560542;27;20143;-83
2022/12/31 07:15:53;;;;;;;35.43;10.80;;;5.70;99.90;;;3.40;100.00;100969.97;10536646;28;20117;-83
2022/12/31 07:20:57;;;;;;;24.30;8.83;;;5.70;99.90;;;3.42;100.00;100970.75;10555218;28;20467;-84
2022/12/31 07:26:26;;;;;;;26.70;9.03;;;5.70;99.90;;;3.44;100.00;100960.97;10560533;28;20086;-83
2022/12/31 07:32:17;;;;;;;42.07;12.93;;;5.80;99.90;;;3.49;100.00;100955.41;10517169;28;20067;-84
2022/12/31 07:37:52;;;;;;;52.40;14.43;;;5.80;99.90;;;3.51;100.00;100977.16;10549072;28;20134;-84
2022/12/31 07:43:16;;;;;;;33.33;12.00;;;5.80;99.90;;;3.53;100.00;100982.28;10522107;28;20094;-83
2022/12/31 07:48:26;;;;;;;36.20;10.23;;;5.80;99.90;;;3.55;100.00;100975.16;10553954;28;20071;-86
2022/12/31 07:53:30;;;;;;;48.53;11.67;;;5.90;99.90;;;3.61;100.00;100983.47;10546270;28;20491;-85
2022/12/31 07:58:41;;;;;;;36.83;10.70;;;5.90;99.90;;;3.65;100.00;100989.34;10559391;28;20064;-85
2022/12/31 08:04:02;;;;;;;43.72;12.32;;;5.90;99.90;;;3.69;100.00;100996.94;10555912;28;20144;-85
2022/12/31 08:09:05;;;;;;;32.47;10.00;;;5.90;99.90;;;3.79;100.00;101010.31;10521108;28;20060;-85
2022/12/31 08:14:12;;;;;;;39.07;10.67;;;6.00;99.90;;;3.96;100.00;101003.91;10534274;28;20067;-85
2022/12/31 08:19:29;;;;;;;41.57;10.50;;;6.10;99.90;;;4.05;100.00;101011.13;10535837;28;20417;-86
2022/12/31 08:25:22;;;;;;;42.77;11.57;;;6.30;99.90;;;4.10;100.00;101013.44;10547032;28;20074;-85
2022/12/31 08:30:51;;;;;;;24.97;8.47;;;6.30;99.90;;;4.21;100.00;101031.97;10533284;28;20461;-85
2022/12/31 08:36:38;;;;;;;33.10;10.67;;;6.30;99.90;;;4.31;100.00;101038.25;10554879;28;20060;-87
2022/12/31 08:41:46;;;;;;;169.80;70.40;;;6.50;99.90;;;4.38;100.00;101036.03;10557491;28;20462;-88
2022/12/31 08:47:01;;;;;;;66.77;26.33;;;6.60;99.90;;;4.42;100.00;101040.13;10544732;28;20084;-86
2022/12/31 08:52:18;;;;;;;42.50;16.60;;;6.70;99.90;;;4.47;100.00;101049.38;10561719;28;20106;-85
2022/12/31 08:58:08;;;;;;;36.20;15.13;;;6.70;99.90;;;4.47;100.00;101059.91;10550603;28;20063;-90
2022/12/31 09:03:37;;;;;;;45.27;16.23;;;6.80;99.90;;;4.47;100.00;101051.19;10545258;28;20142;-81
2022/12/31 09:08:49;;;;;;;35.90;13.17;;;6.70;99.90;;;4.56;100.00;101040.03;10518692;28;20067;-93
2022/12/31 09:14:17;;;;;;;35.10;12.10;;;6.80;99.90;;;4.63;100.00;101037.78;10561394;28;20084;-80
2022/12/31 09:19:20;;;;;;;44.23;13.40;;;6.90;99.90;;;4.68;100.00;101031.25;10545403;28;20064;-79
2022/12/31 09:24:23;;;;;;;26.00;10.33;;;6.90;99.90;;;4.78;100.00;101026.97;10527230;28;20053;-80
2022/12/31 09:29:48;;;;;;;30.13;12.10;;;7.00;99.90;;;4.87;100.00;101019.41;10552609;28;20063;-79
2022/12/31 09:35:06;;;;;;;64.93;24.87;;;7.10;99.90;;;4.89;100.00;101023.59;10541782;28;20057;-80
2022/12/31 09:40:27;;;;;;;40.37;18.97;;;7.10;99.90;;;4.93;100.00;100996.09;10553793;28;20064;-79
2022/12/31 09:45:51;;;;;;;36.53;15.48;;;7.20;99.90;;;5.02;100.00;100987.50;10550059;28;20408;-87
2022/12/31 09:51:17;;;;;;;31.03;13.53;;;7.30;99.90;;;5.24;100.00;100978.84;10547680;28;20064;-87
2022/12/31 09:57:01;;;;;;;99.47;60.80;;;7.50;99.90;;;5.51;100.00;100978.56;10547834;28;20118;-86
2022/12/31 10:02:42;;;;;;;36.73;16.63;;;7.70;99.90;;;5.74;100.00;100979.44;10555162;28;20455;-85
2022/12/31 10:07:49;;;;;;;32.90;14.37;;;7.90;99.90;;;5.91;100.00;100996.66;10544278;28;20056;-85
2022/12/31 10:13:21;;;;;;;30.37;13.97;;;8.10;99.90;;;6.05;100.00;100983.22;10568672;28;20069;-86
2022/12/31 10:18:53;;;;;;;33.87;14.70;;;8.30;99.90;;;6.16;100.00;100970.03;10565335;22;20056;-80
2022/12/31 10:23:59;;;;;;;28.60;12.15;;;8.40;99.90;;;6.24;100.00;100976.50;10545430;27;20052;-80
2022/12/31 10:29:24;;;;;;;30.80;13.03;;;8.50;99.90;;;6.30;100.00;100976.88;10551103;28;20064;-80
2022/12/31 10:35:12;;;;;;;29.83;12.10;;;8.60;99.90;;;6.35;100.00;100968.56;10523077;28;20084;-80
2022/12/31 10:40:48;;;;;;;29.07;13.00;;;8.60;99.90;;;6.36;100.00;100975.56;10553900;27;20095;-82
2022/12/31 10:46:53;;;;;;;34.93;14.80;;;8.60;99.90;;;6.27;100.00;100963.91;10567493;28;20501;-80
2022/12/31 10:52:08;;;;;;;35.73;15.23;;;8.60;99.90;;;6.25;100.00;100986.94;10534553;27;20060;-80
2022/12/31 10:57:50;;;;;;;33.07;14.87;;;8.50;99.90;;;6.20;100.00;100972.44;10527494;28;20502;-83
2022/12/31 11:03:46;;;;;;;32.92;14.68;;;8.50;99.90;;;6.16;100.00;100974.47;10567715;28;20059;-84
2022/12/31 11:09:07;;;;;;;30.20;12.20;;;8.40;99.90;;;6.16;100.00;100975.28;10565068;27;20052;-80
2022/12/31 11:14:47;;;;;;;24.60;11.38;;;8.40;99.90;;;6.20;100.00;100965.34;10559506;28;20060;-81
2022/12/31 11:20:38;;;;;;;34.03;13.43;;;8.50;99.90;;;6.20;100.00;100965.34;10572649;27;20090;-80
2022/12/31 11:25:59;;;;;;;31.47;14.07;;;8.50;99.90;;;6.28;100.00;100980.56;10560701;28;20417;-81
2022/12/31 11:31:39;;;;;;;32.40;14.40;;;8.60;99.90;;;6.38;100.00;100971.81;10560348;28;20067;-81
2022/12/31 11:37:37;;;;;;;27.20;12.77;;;8.70;99.90;;;6.53;100.00;100964.47;10552470;27;20528;-81
2022/12/31 11:43:07;;;;;;;21.70;11.37;;;8.80;99.90;;;6.64;100.00;100959.16;10550880;28;20121;-82
2022/12/31 11:48:38;;;;;;;23.43;11.27;;;8.90;99.90;;;6.70;100.00;100950.72;10549811;28;20091;-81
2022/12/31 11:54:07;;;;;;;24.33;10.90;;;8.90;99.90;;;6.74;100.00;100955.78;10564229;28;20060;-82
2022/12/31 11:59:13;;;;;;;26.30;12.43;;;8.90;99.90;;;6.75;100.00;100966.22;10515462;28;20056;-81
2022/12/31 12:04:21;;;;;;;32.07;13.43;;;8.90;99.90;;;6.77;100.00;100966.09;10510472;28;20063;-81
2022/12/31 12:09:33;;;;;;;29.80;12.07;;;8.90;99.90;;;6.78;100.00;100971.25;10550098;28;20548;-82
2022/12/31 12:14:39;;;;;;;28.63;11.83;;;9.00;99.90;;;6.78;100.00;100975.69;10570136;28;20052;-81
2022/12/31 12:19:53;;;;;;;26.33;11.77;;;8.90;99.90;;;6.70;99.64;100963.94;10554304;28;20067;-81
2022/12/31 12:25:16;;;;;;;27.07;12.27;;;8.90;99.90;;;6.73;99.70;100969.97;10555043;28;20525;-81
2022/12/31 12:30:26;;;;;;;24.83;11.00;;;8.90;99.90;;;6.74;99.23;100963.72;10555250;28;20057;-81
2022/12/31 12:35:34;;;;;;;23.13;11.50;;;8.90;99.90;;;6.77;99.34;100953.72;10530771;28;20064;-81
2022/12/31 12:40:38;;;;;;;26.23;12.17;;;8.90;99.90;;;6.74;98.50;100953.97;10593348;28;20095;-81
2022/12/31 12:45:46;;;;;;;34.73;12.67;;;9.00;99.90;;;6.75;98.45;100965.38;10538838;28;20095;-81
2022/12/31 12:50:54;;;;;;;28.27;12.47;;;9.00;99.90;;;6.84;98.44;100964.66;10556206;28;20060;-81
2022/12/31 12:56:29;;;;;;;31.33;13.63;;;9.10;99.90;;;6.96;98.71;100967.13;10537322;28;20064;-81
2022/12/31 13:02:04;;;;;;;28.93;13.17;;;9.20;99.90;;;7.01;97.91;100947.38;10543846;27;20059;-81
2022/12/31 13:07:52;;;;;;;27.83;12.67;;;9.20;99.90;;;7.06;97.34;100943.41;10557296;28;20044;-81
2022/12/31 13:13:27;;;;;;;29.50;13.83;;;9.30;99.90;;;7.12;97.43;100940.25;10555584;28;20059;-81
2022/12/31 13:18:58;;;;;;;37.77;16.43;;;9.30;99.90;;;7.17;96.98;100961.84;10587263;27;20151;-81
2022/12/31 13:24:22;;;;;;;31.73;15.67;;;9.40;99.90;;;7.16;96.62;100948.78;10548691;28;20056;-81
2022/12/31 13:29:30;;;;;;;33.17;13.50;;;9.30;99.90;;;7.16;96.70;100956.69;10566237;27;20078;-81
2022/12/31 13:34:40;;;;;;;35.53;16.20;;;9.40;99.90;;;7.07;96.41;100949.53;10566263;28;20067;-81
2022/12/31 13:39:45;;;;;;;36.10;18.00;;;9.30;99.90;;;6.96;96.45;100955.72;10571202;27;20139;-81
2022/12/31 13:45:09;;;;;;;40.07;18.13;;;9.20;99.90;;;6.82;96.25;100966.56;10564472;28;20519;-81
2022/12/31 13:50:46;;;;;;;34.73;15.77;;;9.10;99.90;;;6.67;96.25;100974.78;10550301;27;20060;-81
2022/12/31 13:56:00;;;;;;;38.23;16.57;;;9.00;99.90;;;6.59;96.70;100965.75;10560226;28;20064;-81
2022/12/31 14:01:29;;;;;;;34.83;15.40;;;8.90;99.90;;;6.53;97.13;100976.81;10561279;28;20056;-81
2022/12/31 14:06:48;;;;;;;37.53;17.30;;;8.80;99.90;;;6.50;97.43;100980.56;10563350;28;20057;-81
2022/12/31 14:12:12;;;;;;;43.03;17.97;;;8.80;99.90;;;6.51;97.55;100989.31;10557294;28;20109;-81
2022/12/31 14:17:22;;;;;;;39.07;17.23;;;8.80;99.90;;;6.52;97.98;100967.22;10554866;27;20064;-81
2022/12/31 14:23:10;;;;;;;38.00;15.67;;;8.80;99.90;;;6.52;98.00;100980.44;10532940;27;20080;-81
2022/12/31 14:29:17;;;;;;;32.97;16.50;;;8.80;99.90;;;6.54;98.19;100978.53;10525657;27;20517;-81
2022/12/31 14:34:35;;;;;;;42.97;18.43;;;8.80;99.90;;;6.55;98.24;100974.91;10561251;27;20143;-81
2022/12/31 14:40:18;;;;;;;44.13;19.40;;;8.80;99.90;;;6.54;98.28;100983.81;10547239;28;20527;-81
2022/12/31 14:45:58;;;;;;;50.10;20.17;;;8.80;99.90;;;6.54;98.31;100970.59;10559314;27;20096;-81
2022/12/31 14:51:03;;;;;;;36.67;16.77;;;8.80;99.90;;;6.49;98.39;100980.69;10560629;28;20472;-81
2022/12/31 14:56:39;;;;;;;44.07;19.67;;;8.80;99.90;;;6.39;98.53;100984.03;10582300;27;20557;-81
2022/12/31 15:01:45;;;;;;;39.60;16.43;;;8.60;99.90;;;6.37;98.98;100978.06;10542014;28;20062;-81
2022/12/31 15:07:29;;;;;;;36.60;17.63;;;8.60;99.90;;;6.32;98.78;101000.50;10583276;28;20055;-81
2022/12/31 15:13:03;;;;;;;40.07;18.90;;;8.60;99.90;;;6.25;99.08;101008.06;10565296;28;20067;-80
2022/12/31 15:18:46;;;;;;;49.63;22.37;;;8.50;99.90;;;6.21;99.44;100989.94;10556516;28;20060;-81
2022/12/31 15:23:50;;;;;;;53.70;25.27;;;8.50;99.90;;;6.17;99.60;100976.97;10582910;28;20453;-81
2022/12/31 15:29:04;;;;;;;64.03;30.10;;;8.40;99.90;;;6.13;99.94;101004.59;10544245;28;20083;-81
2022/12/31 15:34:30;;;;;;;63.73;28.83;;;8.40;99.90;;;6.12;100.00;100994.16;10532959;28;20123;-81
2022/12/31 15:39:40;;;;;;;63.73;30.77;;;8.40;99.90;;;6.10;100.00;101025.06;10538538;28;20067;-81
2022/12/31 15:45:32;;;;;;;78.10;33.87;;;8.40;99.90;;;6.09;100.00;101021.59;10529816;28;20143;-81
2022/12/31 15:50:37;;;;;;;82.33;37.37;;;8.30;99.90;;;6.09;100.00;101020.78;10530958;28;20159;-81
2022/12/31 15:55:47;;;;;;;70.07;33.67;;;8.40;99.90;;;6.06;100.00;101016.56;10542178;28;20407;-82
2022/12/31 16:01:18;;;;;;;77.93;37.70;;;8.30;99.90;;;6.00;100.00;101016.19;10559437;27;20056;-81
2022/12/31 16:06:24;;;;;;;81.27;34.17;;;8.30;99.90;;;5.90;100.00;101011.59;10568167;27;20060;-81
2022/12/31 16:11:29;;;;;;;61.73;30.57;;;8.20;99.90;;;5.81;100.00;101016.72;10551619;28;20056;-81
2022/12/31 16:16:32;;;;;;;60.40;30.10;;;8.10;99.90;;;5.75;100.00;101007.50;10533897;28;20056;-82
2022/12/31 16:21:37;;;;;;;83.60;34.70;;;8.00;99.90;;;5.68;100.00;101000.16;10544221;28;20102;-81
2022/12/31 16:26:47;;;;;;;77.30;31.97;;;8.00;99.90;;;5.54;100.00;101012.59;10542937;28;20064;-81
2022/12/31 16:31:52;;;;;;;88.20;38.17;;;7.90;99.90;;;5.42;100.00;101021.44;10543245;28;20083;-81
2022/12/31 16:37:03;;;;;;;76.90;33.63;;;7.80;99.90;;;5.29;100.00;101015.41;10527230;28;20063;-81
2022/12/31 16:42:06;;;;;;;77.23;34.00;;;7.60;99.90;;;5.15;100.00;101034.84;10547370;28;20088;-80
2022/12/31 16:47:22;;;;;;;87.13;35.60;;;7.50;99.90;;;5.06;100.00;101030.25;10552067;28;20612;-80
2022/12/31 16:52:46;;;;;;;73.00;33.53;;;7.40;99.90;;;4.99;100.00;101024.59;10558833;28;20052;-80
2022/12/31 16:58:19;;;;;;;86.97;36.87;;;7.30;99.90;;;4.93;100.00;101019.78;10562802;27;20150;-80
2022/12/31 17:03:24;;;;;;;85.33;33.77;;;7.30;99.90;;;4.78;100.00;101036.69;10531447;28;20091;-80
2022/12/31 17:08:43;;;;;;;106.10;42.57;;;7.10;99.90;;;4.70;100.00;101036.41;10530244;28;20064;-80
2022/12/31 17:14:13;;;;;;;120.53;46.13;;;7.00;99.90;;;4.67;100.00;101029.53;10531387;28;20060;-80
2022/12/31 17:19:45;;;;;;;80.47;32.93;;;7.00;99.90;;;4.65;100.00;101036.72;10526569;28;20092;-79
2022/12/31 17:24:49;;;;;;;75.80;30.30;;;7.00;99.90;;;4.59;100.00;101062.66;10536314;28;20063;-80
2022/12/31 17:29:52;;;;;;;62.60;26.17;;;6.90;99.90;;;4.56;100.00;101059.28;10535177;28;20071;-80
2022/12/31 17:34:56;;;;;;;66.37;28.63;;;6.90;99.90;;;4.51;100.00;101048.25;10522731;28;20472;-80
2022/12/31 17:40:02;;;;;;;63.90;28.57;;;6.80;99.90;;;4.47;100.00;101044.13;10521369;28;20391;-80
2022/12/31 17:45:25;;;;;;;62.90;28.53;;;6.80;99.90;;;4.45;100.00;101053.09;10564804;28;20068;-80
2022/12/31 17:50:28;;;;;;;62.90;26.13;;;6.80;99.90;;;4.42;100.00;101051.50;10557051;28;20056;-81
2022/12/31 17:55:32;;;;;;;55.90;24.10;;;6.70;99.90;;;4.39;100.00;101035.09;10558964;28;20052;-80
2022/12/31 18:00:36;;;;;;;62.40;25.43;;;6.70;99.90;;;4.37;100.00;101023.81;10544276;28;20062;-80
2022/12/31 18:05:39;;;;;;;65.40;26.67;;;6.60;99.90;;;4.32;100.00;101034.69;10531476;28;20060;-80
2022/12/31 18:10:43;;;;;;;56.97;26.53;;;6.60;99.90;;;4.27;100.00;101042.91;10553852;28;20063;-80
2022/12/31 18:15:46;;;;;;;66.93;30.10;;;6.60;99.90;;;4.22;100.00;101050.25;10558595;28;20135;-80
2022/12/31 18:21:00;;;;;;;75.13;32.40;;;6.50;99.90;;;4.16;100.00;101063.00;10572677;28;20059;-80
2022/12/31 18:26:03;;;;;;;77.03;34.23;;;6.50;99.90;;;4.08;100.00;101060.91;10521202;28;20068;-80
2022/12/31 18:31:12;;;;;;;73.90;33.17;;;6.40;99.90;;;4.06;100.00;101075.94;10555183;28;20067;-79
2022/12/31 18:36:18;;;;;;;77.17;34.37;;;6.40;99.90;;;4.02;100.00;101077.94;10557196;28;20063;-80
2022/12/31 18:41:28;;;;;;;148.83;59.93;;;6.40;99.90;;;4.02;100.00;101088.47;10552722;28;20060;-79
2022/12/31 18:46:31;;;;;;;109.87;47.87;;;6.40;99.90;;;4.08;100.00;101088.97;10552397;28;20070;-79
2022/12/31 18:51:34;;;;;;;100.23;43.67;;;6.40;99.90;;;4.13;100.00;101092.13;10569561;28;20083;-80
2022/12/31 18:56:37;;;;;;;86.33;38.50;;;6.40;99.90;;;4.18;100.00;101077.72;10571837;28;20094;-79
2022/12/31 19:01:48;;;;;;;84.97;38.08;;;6.50;99.90;;;4.23;100.00;101086.16;10553407;27;20151;-79
2022/12/31 19:06:52;;;;;;;85.77;37.37;;;6.50;99.90;;;4.24;100.00;101098.34;10538099;28;20063;-79
2022/12/31 19:11:55;;;;;;;91.27;37.77;;;6.60;99.90;;;4.19;100.00;101089.09;10555419;28;20106;-80
2022/12/31 19:16:58;;;;;;;109.80;44.73;;;6.50;99.90;;;4.09;100.00;101088.06;10546011;28;20147;-80
2022/12/31 19:22:00;;;;;;;97.90;41.43;;;6.40;99.90;;;3.97;100.00;101087.94;10553929;28;20106;-80
2022/12/31 19:27:03;;;;;;;71.60;32.57;;;6.30;99.90;;;3.87;100.00;101093.91;10571354;28;20060;-80
2022/12/31 19:32:06;;;;;;;78.97;32.37;;;6.20;99.90;;;3.76;100.00;101089.38;10569041;28;20075;-80
2022/12/31 19:37:15;;;;;;;61.10;28.27;;;6.10;99.90;;;3.68;100.00;101081.16;10540818;28;20061;-80
2022/12/31 19:42:18;;;;;;;67.97;29.87;;;6.00;99.90;;;3.60;100.00;101070.28;10531268;27;20494;-80
2022/12/31 19:47:21;;;;;;;86.30;35.43;;;5.90;99.90;;;3.56;100.00;101066.19;10545304;28;20151;-80
2022/12/31 19:52:25;;;;;;;71.53;28.67;;;5.90;99.90;;;3.51;100.00;101056.00;10571156;28;20060;-80
2022/12/31 19:57:27;;;;;;;62.30;26.50;;;5.90;99.90;;;3.52;100.00;101055.03;10553904;28;20071;-80
2022/12/31 20:02:30;;;;;;;66.87;26.47;;;5.90;99.90;;;3.64;100.00;101056.00;10570247;28;20064;-80
2022/12/31 20:07:34;;;;;;;64.83;28.43;;;5.90;99.90;;;3.68;100.00;101044.34;10569054;28;20486;-80
2022/12/31 20:12:37;;;;;;;65.33;29.93;;;6.00;99.90;;;3.62;100.00;101052.66;10567900;28;20059;-81
2022/12/31 20:17:46;;;;;;;66.13;28.90;;;5.90;99.90;;;3.54;100.00;101049.66;10568459;28;20450;-80
2022/12/31 20:22:51;;;;;;;61.57;29.20;;;5.90;99.90;;;3.42;100.00;101048.72;10561533;28;20068;-80
2022/12/31 20:27:54;;;;;;;63.43;27.33;;;5.80;99.90;;;3.33;100.00;101065.91;10531565;28;20063;-80
2022/12/31 20:32:57;;;;;;;80.40;32.03;;;5.70;99.90;;;3.21;100.00;101064.94;10548926;28;20505;-81
2022/12/31 20:38:00;;;;;;;76.87;31.40;;;5.60;99.90;;;3.10;100.00;101075.28;10544321;27;20488;-81
2022/12/31 20:43:03;;;;;;;85.23;35.83;;;5.50;99.90;;;2.95;100.00;101074.50;10533734;28;20060;-81
2022/12/31 20:48:06;;;;;;;81.10;37.07;;;5.40;99.90;;;2.86;100.00;101075.06;10546071;28;20139;-80
2022/12/31 20:53:09;;;;;;;95.27;41.83;;;5.30;99.90;;;2.73;100.00;101074.16;10584172;28;20076;-81
2022/12/31 20:58:12;;;;;;;81.47;33.13;;;5.10;99.90;;;2.65;100.00;101079.06;10550285;28;20091;-80
2022/12/31 21:03:18;;;;;;;96.40;40.13;;;5.10;99.90;;;2.61;100.00;101072.31;10534313;28;20091;-81
2022/12/31 21:08:42;;;;;;;86.70;35.90;;;5.00;99.90;;;2.57;100.00;101070.78;10547608;28;20067;-81
2022/12/31 21:13:45;;;;;;;79.47;29.33;;;4.90;99.90;;;2.53;100.00;101074.56;10528778;28;20060;-81
2022/12/31 21:18:48;;;;;;;70.13;30.53;;;4.90;99.90;;;2.53;100.00;101078.03;10560314;28;20064;-81
2022/12/31 21:23:51;;;;;;;79.50;31.17;;;4.90;99.90;;;2.58;100.00;101083.84;10539475;28;20055;-80
2022/12/31 21:28:55;;;;;;;85.67;31.97;;;4.90;99.90;;;2.66;100.00;101096.47;10585737;28;20059;-81
2022/12/31 21:33:58;;;;;;;80.67;31.63;;;5.00;99.90;;;2.70;100.00;101103.25;10560353;28;20064;-81